MDT,Max TemperatureF,Mean TemperatureF,Min TemperatureF,Max Dew PointF,MeanDew PointF,Min DewpointF,Max Humidity, Mean Humidity, Min Humidity, Max Sea Level PressureIn, Mean Sea Level PressureIn, Min Sea Level PressureIn, Max VisibilityMiles, Mean VisibilityMiles, Min VisibilityMiles, Max Wind SpeedMPH, Mean Wind SpeedMPH, Max Gust SpeedMPH,PrecipitationIn, CloudCover, Events, WindDirDegrees
2013-9-1,78,64,50,56,52,47,93,67,40,30.11,30.06,30.01,10,10,10,13,7,17,0.00,2,,353
2013-9-2,90,71,52,56,53,49,89,58,27,30.05,29.97,29.90,10,10,10,22,11,25,0.00,0,,151
2013-9-3,92,77,62,59,54,43,78,48,18,30.01,29.94,29.89,10,10,10,13,6,,T,0,,141
2013-9-4,85,71,56,61,57,54,97,69,40,30.15,30.09,30.01,10,8,0,18,10,23,0.00,2,Fog,99
2013-9-5,93,76,58,62,59,55,84,57,30,30.08,29.99,29.90,10,10,10,15,9,20,0.00,1,,156
2013-9-6,96,81,66,68,63,57,81,54,27,29.99,29.91,29.86,10,10,10,17,6,23,0.01,2,Rain-Thunderstorm,66
2013-9-7,81,70,59,66,62,58,97,78,58,30.07,30.00,29.90,10,9,3,30,13,39,0.16,4,Rain-Thunderstorm,58
2013-9-8,79,69,59,68,63,58,100,79,58,30.05,29.87,29.70,10,8,1,18,5,22,1.87,7,Rain-Thunderstorm,152
2013-9-9,79,67,55,63,58,47,93,65,36,29.88,29.77,29.68,10,8,1,21,11,28,0.17,5,Rain,293
2013-9-10,82,67,52,56,52,49,93,62,31,30.04,29.98,29.88,10,10,10,21,8,28,0.01,0,,290
2013-9-11,80,66,52,57,50,45,86,58,30,30.27,30.16,30.05,10,10,10,7,4,8,0.00,4,,6
2013-9-12,77,60,43,49,45,43,86,60,33,30.35,30.27,30.17,10,10,10,12,6,,0.00,0,,108
2013-9-13,83,68,52,54,49,43,77,56,34,30.16,29.97,29.79,10,10,10,25,12,31,0.00,0,,165
2013-9-14,73,63,53,63,57,48,97,84,70,30.09,29.88,29.74,10,9,2,20,7,25,0.42,7,Rain,32
2013-9-15,66,56,46,49,45,43,93,71,48,30.31,30.24,30.12,10,9,4,15,9,23,0.00,3,,86
2013-9-16,76,63,50,53,50,46,96,70,43,30.22,30.03,29.83,10,10,7,31,20,39,0.00,3,,161
2013-9-17,86,70,53,63,57,50,93,65,37,29.81,29.70,29.59,10,10,2,23,11,28,0.12,2,Rain-Thunderstorm,167
2013-9-18,80,67,54,61,56,47,97,70,42,29.74,29.60,29.53,10,10,10,28,10,36,T,2,Rain-Thunderstorm,263
2013-9-19,54,46,37,46,42,36,86,75,63,30.12,29.98,29.76,10,10,5,29,15,36,0.01,5,Rain,294
2013-9-20,67,52,36,44,35,31,92,59,26,30.12,30.04,29.94,10,10,3,15,8,20,0.00,0,,292
2013-9-21,76,59,41,48,42,35,79,57,35,29.93,29.77,29.60,10,10,10,25,15,31,0.00,0,,138
2013-9-22,85,64,42,56,49,39,93,60,27,29.58,29.47,29.39,10,10,10,20,6,26,T,1,Rain-Thunderstorm,94
2013-9-23,65,56,47,56,51,42,93,75,56,29.86,29.64,29.40,10,9,2,20,10,25,0.42,4,Rain,280
2013-9-24,74,58,42,45,39,36,86,56,25,29.96,29.86,29.68,10,10,10,25,9,33,0.01,0,,196
2013-9-25,72,64,55,52,47,41,66,53,40,29.65,29.57,29.52,10,10,5,28,12,36,0.00,2,Rain-Thunderstorm,276
2013-9-26,59,53,46,49,45,39,89,71,53,29.94,29.69,29.53,10,9,6,26,15,33,T,6,Rain-Thunderstorm,288
2013-9-27,54,49,44,42,40,37,89,74,59,29.90,29.88,29.85,10,10,10,15,9,20,0.03,7,Rain,290
2013-9-28,65,52,38,39,37,35,85,61,36,29.84,29.81,29.78,10,10,10,28,12,33,0.00,3,,256
2013-9-29,77,61,44,45,41,37,76,52,27,29.76,29.62,29.52,10,10,10,23,12,26,0.00,0,,215
2013-9-30,77,59,41,46,41,36,83,56,29,29.69,29.56,29.42,10,10,10,37,12,46,0.02,2,,236